createdAt,value
2023-01-18T00:00:08.434Z,15.10
2023-01-18T00:02:35.650Z,13.43
2023-01-18T00:05:02.222Z,13.77
2023-01-18T00:07:28.672Z,13.03
2023-01-18T00:09:56.621Z,13.87
2023-01-18T00:12:23.025Z,13.37
2023-01-18T00:14:49.435Z,12.93
2023-01-18T00:17:15.850Z,13.40
2023-01-18T00:19:42.247Z,13.50
2023-01-18T00:22:08.670Z,13.57
2023-01-18T00:24:35.130Z,14.17
2023-01-18T00:27:01.551Z,14.50
2023-01-18T00:29:29.880Z,14.83
2023-01-18T00:31:56.328Z,14.33
2023-01-18T00:34:22.913Z,13.53
2023-01-18T00:36:49.322Z,14.80
2023-01-18T00:39:15.982Z,14.43
2023-01-18T00:42:02.335Z,14.10
2023-01-18T00:44:28.711Z,14.10
2023-01-18T00:46:56.075Z,14.43
2023-01-18T00:49:22.903Z,14.10
2023-01-18T00:51:49.581Z,15.17
2023-01-18T00:54:16.062Z,14.60
2023-01-18T00:56:42.835Z,14.97
2023-01-18T00:59:09.330Z,14.20
2023-01-18T01:01:35.850Z,14.60
2023-01-18T01:04:21.165Z,15.10
2023-01-18T01:06:47.760Z,14.30
2023-01-18T01:09:16.085Z,14.97
2023-01-18T01:12:05.569Z,15.97
2023-01-18T01:14:51.787Z,15.30
2023-01-18T01:17:37.005Z,16.23
2023-01-18T01:20:21.775Z,16.23
2023-01-18T01:23:06.730Z,15.40
2023-01-18T01:25:51.754Z,16.30
2023-01-18T01:28:18.206Z,16.60
2023-01-18T01:30:45.332Z,15.77
2023-01-18T01:33:11.777Z,17.63
2023-01-18T01:35:38.276Z,18.27
2023-01-18T01:38:04.994Z,16.63
2023-01-18T01:40:31.377Z,16.70
2023-01-18T01:42:58.247Z,18.23
2023-01-18T01:45:29.328Z,16.17
2023-01-18T01:47:57.224Z,15.43
2023-01-18T01:50:23.635Z,15.80
2023-01-18T01:52:50.239Z,15.67
2023-01-18T01:55:23.187Z,15.53
2023-01-18T01:58:02.582Z,15.60
2023-01-18T02:00:29.314Z,15.17
2023-01-18T02:03:04.535Z,16.30
2023-01-18T02:05:31.789Z,16.27
2023-01-18T02:07:59.439Z,15.67
2023-01-18T02:10:25.874Z,16.53
2023-01-18T02:12:54.644Z,16.37
2023-01-18T02:15:22.773Z,16.47
2023-01-18T02:17:49.155Z,16.60
2023-01-18T02:20:24.283Z,17.30
2023-01-18T02:23:15.929Z,17.37
2023-01-18T02:25:57.658Z,18.27
2023-01-18T02:28:26.825Z,16.93
2023-01-18T02:30:53.181Z,16.93
2023-01-18T02:33:25.767Z,18.97
2023-01-18T02:35:54.195Z,18.30
2023-01-18T02:38:26.368Z,19.23
2023-01-18T02:40:52.741Z,18.07
2023-01-18T02:43:38.548Z,18.40
2023-01-18T02:46:25.252Z,18.30
2023-01-18T02:48:52.031Z,18.20
2023-01-18T02:51:18.486Z,17.53
2023-01-18T02:53:46.016Z,18.90
2023-01-18T02:56:21.363Z,19.07
2023-01-18T02:58:49.351Z,18.67
2023-01-18T03:01:22.222Z,18.70
2023-01-18T03:03:49.207Z,17.40
2023-01-18T03:06:15.610Z,17.43
2023-01-18T03:08:44.886Z,18.07
2023-01-18T03:11:18.094Z,17.87
2023-01-18T03:14:04.234Z,17.97
2023-01-18T03:16:40.390Z,17.37
2023-01-18T03:19:30.563Z,19.00
2023-01-18T03:21:57.099Z,17.63
2023-01-18T03:24:23.559Z,18.23
2023-01-18T03:26:51.978Z,18.70
2023-01-18T03:29:37.564Z,18.67
2023-01-18T03:32:26.600Z,18.27
2023-01-18T03:34:57.919Z,17.10
2023-01-18T03:37:29.330Z,18.47
2023-01-18T03:40:08.279Z,19.03
2023-01-18T03:42:39.930Z,18.50
2023-01-18T03:45:09.268Z,18.90
2023-01-18T03:47:35.728Z,20.40
2023-01-18T03:50:02.209Z,18.77
2023-01-18T03:52:37.942Z,19.10
2023-01-18T03:55:04.514Z,18.80
2023-01-18T03:57:36.295Z,17.67
2023-01-18T04:00:05.971Z,19.63
2023-01-18T04:02:39.037Z,18.97
2023-01-18T04:05:06.051Z,19.50
2023-01-18T04:07:32.778Z,18.10
2023-01-18T04:09:59.591Z,19.43
2023-01-18T04:12:26.045Z,19.37
2023-01-18T04:14:52.555Z,17.77
2023-01-18T04:17:19.218Z,19.53
2023-01-18T04:19:45.646Z,19.60
2023-01-18T04:22:12.093Z,19.70
2023-01-18T04:24:38.517Z,18.47
2023-01-18T04:27:04.930Z,19.23
2023-01-18T04:29:31.425Z,18.93
2023-01-18T04:31:57.952Z,20.10
2023-01-18T04:34:24.490Z,19.73
2023-01-18T04:36:51.203Z,21.03
2023-01-18T04:39:18.023Z,20.87
2023-01-18T04:41:44.712Z,22.80
2023-01-18T04:44:11.319Z,21.13
2023-01-18T04:46:40.676Z,21.37
2023-01-18T04:49:09.744Z,19.37
2023-01-18T04:51:37.402Z,21.83
2023-01-18T04:54:03.950Z,19.97
2023-01-18T04:56:30.496Z,21.27
2023-01-18T04:58:56.901Z,21.10
2023-01-18T05:01:23.528Z,20.47
2023-01-18T05:03:50.000Z,21.17
2023-01-18T05:06:16.717Z,20.53
2023-01-18T05:08:43.203Z,21.23
2023-01-18T05:11:11.828Z,21.93
2023-01-18T05:13:38.464Z,20.40
2023-01-18T05:16:06.301Z,20.80
2023-01-18T05:18:33.087Z,22.30
2023-01-18T05:20:59.488Z,22.93
2023-01-18T05:23:25.919Z,24.30
2023-01-18T05:25:56.011Z,24.20
2023-01-18T05:28:22.976Z,25.40
2023-01-18T05:30:52.704Z,25.63
2023-01-18T05:33:19.194Z,24.83
2023-01-18T05:35:49.690Z,24.63
2023-01-18T05:38:16.227Z,24.97
2023-01-18T05:40:43.399Z,26.03
2023-01-18T05:43:09.966Z,25.73
2023-01-18T05:45:36.382Z,24.03
2023-01-18T05:48:03.939Z,23.83
2023-01-18T05:50:30.491Z,22.87
2023-01-18T05:52:57.796Z,24.00
2023-01-18T05:55:24.864Z,24.07
2023-01-18T05:57:51.351Z,23.67
2023-01-18T06:00:18.055Z,23.17
2023-01-18T06:02:44.487Z,25.33
2023-01-18T06:05:11.928Z,23.00
2023-01-18T06:07:38.397Z,24.73
2023-01-18T06:10:05.141Z,23.53
2023-01-18T06:12:31.592Z,23.27
2023-01-18T06:14:58.921Z,22.63
2023-01-18T06:17:25.331Z,25.10
2023-01-18T06:19:51.695Z,22.67
2023-01-18T06:22:18.110Z,24.90
2023-01-18T06:24:44.506Z,26.33
2023-01-18T06:27:10.884Z,23.60
2023-01-18T06:29:37.453Z,24.30
2023-01-18T06:32:04.119Z,25.03
2023-01-18T06:34:30.569Z,25.80
2023-01-18T06:36:57.065Z,26.07
2023-01-18T06:39:23.433Z,25.27
2023-01-18T06:41:50.182Z,26.27
2023-01-18T06:44:16.917Z,25.90
2023-01-18T06:46:44.289Z,25.07
2023-01-18T06:49:11.356Z,24.33
2023-01-18T06:51:38.788Z,23.37
2023-01-18T06:54:05.255Z,23.47
2023-01-18T06:56:31.656Z,23.67
2023-01-18T06:58:58.860Z,24.47
2023-01-18T07:01:25.849Z,23.83
2023-01-18T07:03:52.655Z,24.63
2023-01-18T07:06:19.274Z,24.17
2023-01-18T07:08:45.955Z,23.90
2023-01-18T07:11:13.174Z,25.60
2023-01-18T07:13:43.647Z,25.17
2023-01-18T07:16:13.310Z,25.00
2023-01-18T07:18:43.818Z,24.07
2023-01-18T07:21:10.747Z,23.97
2023-01-18T07:23:38.202Z,26.43
2023-01-18T07:26:05.887Z,25.03
2023-01-18T07:28:32.892Z,25.30
2023-01-18T07:30:59.840Z,25.33
2023-01-18T07:33:29.187Z,25.00
2023-01-18T07:35:56.879Z,27.10
2023-01-18T07:38:23.895Z,26.93
2023-01-18T07:40:57.939Z,26.37
2023-01-18T07:43:24.344Z,27.53
2023-01-18T07:45:54.515Z,26.87
2023-01-18T07:48:21.835Z,27.87
2023-01-18T07:50:55.535Z,27.97
2023-01-18T07:53:22.366Z,28.93
2023-01-18T07:55:49.144Z,28.00
2023-01-18T07:58:16.027Z,30.30
2023-01-18T08:00:42.568Z,28.07
2023-01-18T08:03:14.464Z,27.17
2023-01-18T08:05:42.882Z,29.73
2023-01-18T08:08:13.083Z,28.97
2023-01-18T08:10:40.182Z,29.77
2023-01-18T08:13:09.093Z,28.43
2023-01-18T08:15:36.024Z,29.33
2023-01-18T08:18:03.089Z,30.77
2023-01-18T08:20:29.883Z,29.40
2023-01-18T08:22:57.988Z,28.63
2023-01-18T08:25:29.581Z,30.03
2023-01-18T08:27:58.336Z,30.97
2023-01-18T08:30:28.168Z,29.80
2023-01-18T08:32:56.576Z,30.03
2023-01-18T08:35:26.264Z,31.03
2023-01-18T08:37:52.731Z,28.43
2023-01-18T08:40:19.801Z,31.00
2023-01-18T08:42:46.763Z,32.40
2023-01-18T08:45:14.016Z,29.93
2023-01-18T08:47:40.778Z,33.10
2023-01-18T08:50:08.976Z,35.73
2023-01-18T08:52:35.559Z,37.67
2023-01-18T08:55:05.795Z,33.37
2023-01-18T08:57:32.334Z,39.33
2023-01-18T08:59:58.833Z,37.57
2023-01-18T09:02:25.768Z,35.90
2023-01-18T09:04:54.833Z,37.23
2023-01-18T09:07:21.241Z,38.53
2023-01-18T09:09:47.694Z,39.23
2023-01-18T09:12:14.184Z,40.80
2023-01-18T09:14:43.348Z,40.93
2023-01-18T09:17:09.803Z,38.60
2023-01-18T09:19:36.221Z,41.97
2023-01-18T09:22:03.633Z,37.63
2023-01-18T09:24:30.058Z,40.77
2023-01-18T09:26:56.612Z,43.33
2023-01-18T09:29:23.079Z,42.50
2023-01-18T09:31:49.776Z,46.40
2023-01-18T09:34:19.917Z,48.33
2023-01-18T09:36:49.097Z,47.13
2023-01-18T09:39:15.551Z,49.57
2023-01-18T09:41:44.274Z,47.97
2023-01-18T09:44:19.436Z,45.83
2023-01-18T09:46:47.963Z,46.00
2023-01-18T09:49:20.829Z,47.60
2023-01-18T09:51:52.471Z,47.17
2023-01-18T09:54:25.012Z,47.13
2023-01-18T09:57:05.318Z,50.27
2023-01-18T09:59:50.760Z,50.90
2023-01-18T10:02:25.648Z,48.40
2023-01-18T10:04:54.850Z,49.67
2023-01-18T10:07:23.025Z,54.80
2023-01-18T10:09:54.808Z,50.60
2023-01-18T10:12:39.700Z,50.80
2023-01-18T10:15:13.747Z,51.87
2023-01-18T10:17:41.492Z,51.80
2023-01-18T10:20:15.695Z,45.63
2023-01-18T10:22:53.309Z,45.57
2023-01-18T10:25:38.365Z,47.70
2023-01-18T10:28:13.004Z,47.47
2023-01-18T10:30:51.595Z,48.60
2023-01-18T10:33:26.005Z,45.77
2023-01-18T10:35:54.979Z,49.90
2023-01-18T10:38:23.229Z,48.37
2023-01-18T10:41:00.202Z,51.47
2023-01-18T10:43:27.865Z,48.27
2023-01-18T10:45:54.615Z,54.70
2023-01-18T10:48:21.105Z,56.63
2023-01-18T10:50:50.484Z,60.37
2023-01-18T10:53:24.056Z,56.50
2023-01-18T10:55:55.816Z,65.47
2023-01-18T10:58:33.285Z,47.33
2023-01-18T11:01:00.932Z,53.30
2023-01-18T11:03:28.382Z,58.57
2023-01-18T11:06:04.076Z,60.27
2023-01-18T11:08:31.698Z,50.93
2023-01-18T11:11:03.189Z,62.40
2023-01-18T11:13:43.353Z,51.70
2023-01-18T11:16:13.502Z,60.63
2023-01-18T11:19:00.415Z,60.47
2023-01-18T11:21:33.117Z,59.10
2023-01-18T11:24:05.402Z,61.53
2023-01-18T11:26:31.925Z,65.50
2023-01-18T11:29:12.712Z,57.37
2023-01-18T11:31:45.600Z,53.37
2023-01-18T11:34:49.005Z,58.83
2023-01-18T11:37:47.705Z,62.30
2023-01-18T11:40:26.764Z,39.97
2023-01-18T11:43:11.735Z,57.03
2023-01-18T11:45:48.067Z,51.40
2023-01-18T11:48:28.544Z,45.47
2023-01-18T11:51:08.409Z,48.60
2023-01-18T11:53:34.796Z,51.33
2023-01-18T11:56:13.511Z,51.33
2023-01-18T11:58:40.265Z,47.57
2023-01-18T12:01:09.767Z,47.63
2023-01-18T12:03:44.285Z,48.13
2023-01-18T12:06:27.318Z,42.23
2023-01-18T12:09:14.388Z,45.87
2023-01-18T12:11:48.087Z,45.60
2023-01-18T12:14:16.021Z,46.30
2023-01-18T12:16:51.774Z,45.80
2023-01-18T12:19:33.428Z,41.03
2023-01-18T12:22:05.387Z,45.70
2023-01-18T12:24:37.969Z,47.47
2023-01-18T12:27:18.858Z,44.53
2023-01-18T12:29:54.081Z,41.63
2023-01-18T12:32:39.305Z,44.50
2023-01-18T12:35:25.406Z,42.43
2023-01-18T12:37:58.305Z,35.67
2023-01-18T12:40:35.520Z,34.50
2023-01-18T12:43:14.191Z,35.67
2023-01-18T12:45:41.910Z,28.80
2023-01-18T12:48:29.760Z,28.97
2023-01-18T12:50:56.859Z,32.60
2023-01-18T12:53:46.640Z,22.40
2023-01-18T12:56:15.215Z,26.90
2023-01-18T12:58:44.015Z,25.43
2023-01-18T13:01:14.424Z,23.93
2023-01-18T13:03:45.200Z,20.07
2023-01-18T13:06:12.105Z,20.53
2023-01-18T13:09:00.233Z,21.73
2023-01-18T13:11:37.985Z,15.90
2023-01-18T13:14:19.684Z,16.17
2023-01-18T13:16:48.370Z,17.13
2023-01-18T13:19:29.322Z,14.67
2023-01-18T13:22:10.794Z,14.67
2023-01-18T13:24:43.403Z,12.83
2023-01-18T13:27:11.378Z,13.77
2023-01-18T13:29:38.382Z,10.97
2023-01-18T13:32:20.957Z,13.20
2023-01-18T13:35:12.938Z,10.57
2023-01-18T13:37:47.772Z,10.80
2023-01-18T13:40:37.894Z,10.87
2023-01-18T13:43:05.765Z,9.77
2023-01-18T13:45:32.326Z,10.03
2023-01-18T13:48:00.656Z,8.70
2023-01-18T13:50:37.984Z,8.93
2023-01-18T13:53:21.830Z,8.57
2023-01-18T13:55:54.360Z,9.03
2023-01-18T13:58:23.808Z,9.37
2023-01-18T14:00:50.538Z,8.13
2023-01-18T14:03:21.621Z,8.87
2023-01-18T14:05:48.807Z,7.73
2023-01-18T14:08:25.993Z,8.70
2023-01-18T14:10:53.551Z,9.63
2023-01-18T14:13:39.940Z,8.40
2023-01-18T14:16:06.588Z,8.03
2023-01-18T14:18:33.264Z,10.47
2023-01-18T14:21:06.187Z,8.70
2023-01-18T14:23:51.485Z,8.17
2023-01-18T14:26:19.317Z,7.87
2023-01-18T14:28:54.411Z,7.40
2023-01-18T14:31:24.875Z,7.27
2023-01-18T14:33:51.525Z,8.07
2023-01-18T14:36:24.691Z,8.00
2023-01-18T14:39:14.172Z,8.37
2023-01-18T14:41:43.445Z,8.93
2023-01-18T14:44:21.487Z,8.30
2023-01-18T14:46:51.923Z,9.30
2023-01-18T14:49:22.646Z,9.50
2023-01-18T14:51:49.848Z,9.63
2023-01-18T14:54:17.464Z,8.53
2023-01-18T14:56:44.322Z,9.87
2023-01-18T14:59:19.402Z,9.33
2023-01-18T15:01:53.747Z,9.77
2023-01-18T15:04:20.291Z,9.60
2023-01-18T15:06:52.486Z,7.90
2023-01-18T15:09:20.377Z,8.33
2023-01-18T15:11:47.509Z,8.63
2023-01-18T15:14:25.195Z,8.33
2023-01-18T15:16:53.003Z,8.93
2023-01-18T15:19:22.424Z,7.80
2023-01-18T15:21:49.016Z,7.20
2023-01-18T15:24:19.995Z,8.43
2023-01-18T15:26:50.180Z,8.43
2023-01-18T15:29:18.269Z,10.00
2023-01-18T15:31:55.645Z,10.00
2023-01-18T15:34:28.437Z,9.30
2023-01-18T15:36:55.628Z,8.57
2023-01-18T15:39:22.087Z,9.50
2023-01-18T15:41:48.763Z,10.70
2023-01-18T15:44:34.444Z,11.33
2023-01-18T15:47:01.602Z,10.13
2023-01-18T15:49:28.592Z,11.10
2023-01-18T15:51:57.975Z,11.47
2023-01-18T15:54:26.920Z,11.67
2023-01-18T15:56:54.198Z,11.70
2023-01-18T15:59:22.381Z,10.93
2023-01-18T16:02:13.559Z,11.63
2023-01-18T16:04:40.703Z,11.93
2023-01-18T16:07:26.203Z,12.03
2023-01-18T16:10:18.277Z,13.27
2023-01-18T16:12:45.057Z,12.67
2023-01-18T16:15:28.218Z,14.10
2023-01-18T16:17:58.577Z,12.70
2023-01-18T16:20:25.201Z,14.40
2023-01-18T16:22:53.928Z,14.83
2023-01-18T16:25:22.869Z,14.20
2023-01-18T16:27:57.164Z,14.07
2023-01-18T16:30:32.530Z,15.03
2023-01-18T16:33:15.791Z,16.83
2023-01-18T16:35:42.437Z,14.17
2023-01-18T16:38:12.477Z,15.80
2023-01-18T16:40:40.014Z,13.67
2023-01-18T16:43:08.001Z,16.83
2023-01-18T16:45:37.822Z,18.77
2023-01-18T16:48:05.229Z,13.97
2023-01-18T16:50:31.886Z,13.80
2023-01-18T16:52:58.346Z,15.43
2023-01-18T16:55:24.781Z,15.70
2023-01-18T16:57:51.900Z,15.93
2023-01-18T17:00:22.684Z,17.90
2023-01-18T17:02:49.319Z,17.67
2023-01-18T17:05:16.133Z,18.73
2023-01-18T17:07:42.870Z,16.57
2023-01-18T17:10:18.495Z,17.40
2023-01-18T17:12:45.103Z,17.37
2023-01-18T17:15:12.665Z,18.33
2023-01-18T17:17:40.303Z,18.10
2023-01-18T17:20:16.247Z,19.33
2023-01-18T17:22:42.829Z,21.87
2023-01-18T17:25:09.367Z,20.77
2023-01-18T17:27:35.811Z,20.63
2023-01-18T17:30:02.272Z,23.17
2023-01-18T17:32:28.757Z,20.30
2023-01-18T17:34:55.187Z,22.27
2023-01-18T17:37:21.592Z,21.43
2023-01-18T17:40:02.624Z,21.07
2023-01-18T17:42:30.615Z,22.53
2023-01-18T17:45:03.531Z,24.23
2023-01-18T17:47:30.615Z,23.23
2023-01-18T17:49:57.022Z,22.30
2023-01-18T17:52:23.507Z,22.97
2023-01-18T17:54:49.998Z,22.03
2023-01-18T17:57:16.764Z,22.93
2023-01-18T17:59:43.240Z,24.30
2023-01-18T18:02:10.813Z,24.33
2023-01-18T18:04:37.968Z,22.37
2023-01-18T18:07:04.545Z,24.37
2023-01-18T18:09:31.964Z,23.00
2023-01-18T18:11:58.400Z,25.00
2023-01-18T18:14:24.827Z,23.10
2023-01-18T18:16:51.619Z,23.67
2023-01-18T18:19:18.029Z,25.93
2023-01-18T18:21:45.311Z,20.00
2023-01-18T18:24:11.864Z,22.57
2023-01-18T18:26:38.300Z,22.20
2023-01-18T18:29:04.724Z,19.23
2023-01-18T18:31:31.359Z,20.93
2023-01-18T18:33:57.838Z,19.40
2023-01-18T18:36:27.082Z,19.50
2023-01-18T18:38:53.579Z,18.27
2023-01-18T18:41:19.999Z,19.13
2023-01-18T18:43:46.484Z,20.30
2023-01-18T18:46:13.879Z,16.43
2023-01-18T18:48:40.340Z,17.27
2023-01-18T18:51:06.774Z,15.90
2023-01-18T18:53:38.595Z,18.10
2023-01-18T18:56:11.970Z,15.37
2023-01-18T18:58:39.337Z,13.70
2023-01-18T19:01:06.652Z,15.03
2023-01-18T19:03:33.391Z,12.87
2023-01-18T19:05:59.951Z,13.80
2023-01-18T19:08:26.349Z,14.33
2023-01-18T19:10:52.795Z,12.10
2023-01-18T19:13:19.382Z,13.53
2023-01-18T19:15:46.893Z,13.90
2023-01-18T19:18:13.961Z,13.90
2023-01-18T19:20:40.698Z,14.03
2023-01-18T19:23:07.350Z,14.30
2023-01-18T19:25:33.813Z,13.67
2023-01-18T19:28:00.216Z,12.97
2023-01-18T19:30:26.989Z,12.43
2023-01-18T19:32:53.558Z,12.40
2023-01-18T19:35:20.447Z,13.13
2023-01-18T19:37:47.221Z,13.80
2023-01-18T19:40:14.189Z,14.20
2023-01-18T19:42:40.820Z,14.03
2023-01-18T19:45:09.672Z,14.83
2023-01-18T19:47:36.190Z,13.60
2023-01-18T19:50:03.197Z,14.97
2023-01-18T19:52:30.424Z,13.47
2023-01-18T19:54:58.832Z,13.70
2023-01-18T19:57:26.379Z,13.67
2023-01-18T19:59:52.783Z,14.77
2023-01-18T20:02:19.435Z,14.03
2023-01-18T20:04:47.496Z,16.13
2023-01-18T20:07:16.312Z,13.47
2023-01-18T20:09:43.691Z,14.70
2023-01-18T20:12:12.476Z,14.20
2023-01-18T20:14:41.849Z,13.50
2023-01-18T20:17:11.939Z,12.87
2023-01-18T20:19:38.462Z,13.87
2023-01-18T20:22:04.909Z,14.97
2023-01-18T20:24:31.548Z,15.40
2023-01-18T20:27:14.944Z,19.63
2023-01-18T20:29:42.131Z,18.83
2023-01-18T20:32:15.743Z,15.50
2023-01-18T20:34:44.599Z,12.80
2023-01-18T20:37:11.893Z,14.83
2023-01-18T20:39:38.616Z,13.40
2023-01-18T20:42:05.240Z,14.77
2023-01-18T20:44:31.670Z,11.27
2023-01-18T20:46:58.088Z,12.80
2023-01-18T20:49:33.225Z,12.27
2023-01-18T20:52:04.869Z,13.80
2023-01-18T20:54:31.352Z,13.40
2023-01-18T20:56:58.762Z,13.53
2023-01-18T20:59:25.580Z,14.10
2023-01-18T21:01:52.988Z,13.73
2023-01-18T21:04:22.384Z,15.13
2023-01-18T21:06:49.806Z,13.97
2023-01-18T21:09:16.893Z,15.37
2023-01-18T21:11:43.657Z,15.87
2023-01-18T21:14:10.097Z,15.07
2023-01-18T21:16:36.686Z,16.10
2023-01-18T21:19:03.281Z,16.90
2023-01-18T21:21:31.716Z,14.37
2023-01-18T21:23:58.678Z,15.57
2023-01-18T21:26:25.207Z,16.37
2023-01-18T21:28:51.634Z,16.77
2023-01-18T21:31:18.099Z,16.20
2023-01-18T21:33:44.523Z,16.40
2023-01-18T21:36:15.469Z,16.97
2023-01-18T21:38:41.972Z,17.33
2023-01-18T21:41:27.182Z,16.70
2023-01-18T21:44:12.789Z,17.67
2023-01-18T21:46:43.987Z,17.17
2023-01-18T21:49:42.894Z,16.33
2023-01-18T21:52:32.427Z,17.10
2023-01-18T21:54:58.987Z,16.03
2023-01-18T21:57:25.411Z,16.83
2023-01-18T21:59:51.861Z,15.70
2023-01-18T22:02:18.450Z,15.30
2023-01-18T22:04:58.587Z,17.63
2023-01-18T22:07:25.273Z,19.20
2023-01-18T22:10:03.428Z,18.27
2023-01-18T22:12:31.635Z,15.37
2023-01-18T22:14:59.357Z,14.53
2023-01-18T22:17:25.856Z,16.73
2023-01-18T22:19:53.430Z,16.47
2023-01-18T22:22:19.932Z,15.87
2023-01-18T22:24:46.316Z,17.70
2023-01-18T22:27:12.752Z,17.00
2023-01-18T22:29:39.209Z,19.73
2023-01-18T22:32:05.826Z,20.27
2023-01-18T22:34:32.242Z,18.87
2023-01-18T22:36:58.662Z,19.73
2023-01-18T22:39:25.274Z,20.47
2023-01-18T22:41:51.713Z,20.57
2023-01-18T22:44:18.151Z,17.77
2023-01-18T22:46:44.623Z,19.57
2023-01-18T22:49:11.080Z,17.93
2023-01-18T22:51:37.634Z,19.83
2023-01-18T22:54:04.158Z,18.30
2023-01-18T22:56:30.690Z,20.67
2023-01-18T22:58:57.212Z,20.53
2023-01-18T23:01:27.805Z,20.53
2023-01-18T23:03:58.924Z,20.27
2023-01-18T23:06:26.181Z,19.73
2023-01-18T23:08:54.264Z,18.43
2023-01-18T23:11:22.355Z,19.50
2023-01-18T23:14:09.222Z,22.30
2023-01-18T23:16:54.468Z,18.70
2023-01-18T23:19:21.659Z,20.33
2023-01-18T23:21:48.187Z,19.97
2023-01-18T23:24:14.606Z,20.47
2023-01-18T23:26:41.024Z,20.20
2023-01-18T23:29:07.515Z,21.20
2023-01-18T23:31:34.157Z,21.07
2023-01-18T23:34:00.683Z,21.90
2023-01-18T23:36:27.139Z,20.00
2023-01-18T23:39:12.521Z,20.23
2023-01-18T23:41:57.683Z,21.23
2023-01-18T23:44:43.031Z,19.70
2023-01-18T23:47:28.052Z,20.43
2023-01-18T23:50:13.353Z,20.17
2023-01-18T23:52:58.527Z,18.47
2023-01-18T23:55:24.978Z,18.57
2023-01-18T23:57:51.408Z,18.17
